createdAt,value
2022-08-21T00:04:54.543Z,18.14
2022-08-21T00:09:59.762Z,18.16
2022-08-21T00:15:01.758Z,18.20
2022-08-21T00:20:07.547Z,18.41
2022-08-21T00:25:10.578Z,18.36
2022-08-21T00:30:23.163Z,18.27
2022-08-21T00:35:39.237Z,18.37
2022-08-21T00:40:45.980Z,18.25
2022-08-21T00:45:48.250Z,18.24
2022-08-21T00:50:57.893Z,18.34
2022-08-21T00:56:00.890Z,18.18
2022-08-21T01:01:08.715Z,18.31
2022-08-21T01:06:10.659Z,18.36
2022-08-21T01:11:12.356Z,18.23
2022-08-21T01:16:18.100Z,18.27
2022-08-21T01:21:28.032Z,18.25
2022-08-21T01:26:34.005Z,18.23
2022-08-21T01:31:38.137Z,18.29
2022-08-21T01:36:40.289Z,18.20
2022-08-21T01:41:42.425Z,17.98
2022-08-21T01:46:44.061Z,17.88
2022-08-21T01:51:45.793Z,17.43
2022-08-21T01:56:50.791Z,17.37
2022-08-21T02:01:55.068Z,17.53
2022-08-21T02:06:56.709Z,17.62
2022-08-21T02:11:58.384Z,17.51
2022-08-21T02:17:05.441Z,17.65
2022-08-21T02:22:11.834Z,17.73
2022-08-21T02:27:13.494Z,17.58
2022-08-21T02:32:15.868Z,17.52
2022-08-21T02:37:17.842Z,17.76
2022-08-21T02:42:19.628Z,17.85
2022-08-21T02:47:21.325Z,17.86
2022-08-21T02:52:23.052Z,17.71
2022-08-21T02:57:24.692Z,17.52
2022-08-21T03:02:26.664Z,17.66
2022-08-21T03:07:28.448Z,17.78
2022-08-21T03:12:30.309Z,17.63
2022-08-21T03:17:32.304Z,17.71
2022-08-21T03:22:34.005Z,17.69
2022-08-21T03:27:36.190Z,17.66
2022-08-21T03:32:42.132Z,17.74
2022-08-21T03:37:44.413Z,17.71
2022-08-21T03:42:48.073Z,17.46
2022-08-21T03:47:59.390Z,17.86
2022-08-21T03:53:01.149Z,17.69
2022-08-21T03:58:16.832Z,17.60
2022-08-21T04:03:20.916Z,17.63
2022-08-21T04:08:22.803Z,17.79
2022-08-21T04:13:25.225Z,17.66
2022-08-21T04:18:27.010Z,17.52
2022-08-21T04:23:28.912Z,17.74
2022-08-21T04:28:31.239Z,17.89
2022-08-21T04:33:33.020Z,17.80
2022-08-21T04:38:37.516Z,18.03
2022-08-21T04:43:40.472Z,17.84
2022-08-21T04:48:42.181Z,17.84
2022-08-21T04:53:53.153Z,18.25
2022-08-21T04:58:58.431Z,18.34
2022-08-21T05:04:02.033Z,18.09
2022-08-21T05:09:04.438Z,18.33
2022-08-21T05:14:06.088Z,18.68
2022-08-21T05:19:08.843Z,18.82
2022-08-21T05:24:11.420Z,18.65
2022-08-21T05:29:14.224Z,18.07
2022-08-21T05:34:21.737Z,18.38
2022-08-21T05:39:23.404Z,18.46
2022-08-21T05:44:25.064Z,18.38
2022-08-21T05:49:28.558Z,18.67
2022-08-21T05:54:30.694Z,18.82
2022-08-21T05:59:32.402Z,18.81
2022-08-21T06:04:37.172Z,19.13
2022-08-21T06:09:39.139Z,19.09
2022-08-21T06:14:42.173Z,19.18
2022-08-21T06:19:43.820Z,19.18
2022-08-21T06:24:47.938Z,19.28
2022-08-21T06:29:49.608Z,19.40
2022-08-21T06:34:51.321Z,19.51
2022-08-21T06:39:53.240Z,19.54
2022-08-21T06:44:55.519Z,19.75
2022-08-21T06:49:57.925Z,19.85
2022-08-21T06:54:59.574Z,20.13
2022-08-21T07:00:01.248Z,20.35
2022-08-21T07:05:07.890Z,20.43
2022-08-21T07:10:22.440Z,20.37
2022-08-21T07:15:24.550Z,20.56
2022-08-21T07:20:30.670Z,20.33
2022-08-21T07:25:32.719Z,20.55
2022-08-21T07:30:34.490Z,20.65
2022-08-21T07:35:37.188Z,20.75
2022-08-21T07:40:39.875Z,20.73
2022-08-21T07:45:41.578Z,20.65
2022-08-21T07:50:44.045Z,20.04
2022-08-21T07:55:45.675Z,19.85
2022-08-21T08:00:47.321Z,19.83
2022-08-21T08:05:49.037Z,20.45
2022-08-21T08:10:50.893Z,20.76
2022-08-21T08:15:52.717Z,20.98
2022-08-21T08:20:54.392Z,20.74
2022-08-21T08:25:56.047Z,20.84
2022-08-21T08:30:57.695Z,21.39
2022-08-21T08:36:01.353Z,21.57
2022-08-21T08:41:19.869Z,21.78
2022-08-21T08:46:40.467Z,21.65
2022-08-21T08:51:53.130Z,21.85
2022-08-21T08:56:56.803Z,21.42
2022-08-21T09:01:58.837Z,21.86
2022-08-21T09:07:33.874Z,21.35
2022-08-21T09:13:02.805Z,21.55
2022-08-21T09:18:31.999Z,22.24
2022-08-21T09:24:03.386Z,22.76
2022-08-21T09:29:07.954Z,23.24
2022-08-21T09:34:13.095Z,23.60
2022-08-21T09:39:32.871Z,23.46
2022-08-21T09:44:44.911Z,23.62
2022-08-21T09:49:46.570Z,23.51
2022-08-21T09:54:53.573Z,23.21
2022-08-21T09:59:56.243Z,22.62
2022-08-21T10:05:01.206Z,22.77
2022-08-21T10:10:16.555Z,22.63
2022-08-21T10:15:48.327Z,23.15
2022-08-21T10:21:03.588Z,23.09
2022-08-21T10:26:39.969Z,22.83
2022-08-21T10:37:10.530Z,23.28
2022-08-21T10:42:15.401Z,23.26
2022-08-21T10:47:28.839Z,23.14
2022-08-21T10:52:36.284Z,23.45
2022-08-21T10:57:57.484Z,23.84
2022-08-21T11:03:29.897Z,23.51
2022-08-21T11:08:38.933Z,23.32
2022-08-21T11:13:52.933Z,23.76
2022-08-21T11:18:57.510Z,24.30
2022-08-21T11:24:05.711Z,24.47
2022-08-21T11:29:30.701Z,25.08
2022-08-21T11:34:48.394Z,24.39
2022-08-21T11:40:10.367Z,25.53
2022-08-21T11:45:42.698Z,25.43
2022-08-21T11:50:46.742Z,25.81
2022-08-21T11:56:06.797Z,26.42
2022-08-21T12:01:22.790Z,27.34
2022-08-21T12:06:36.767Z,28.58
2022-08-21T12:12:00.601Z,28.09
2022-08-21T12:17:08.857Z,29.52
2022-08-21T12:22:15.764Z,28.86
2022-08-21T12:27:41.752Z,27.22
2022-08-21T12:32:43.806Z,28.35
2022-08-21T12:37:50.974Z,26.63
2022-08-21T12:42:58.811Z,26.17
2022-08-21T12:48:38.441Z,24.96
2022-08-21T12:53:45.736Z,23.83
2022-08-21T12:58:57.874Z,23.82
2022-08-21T13:04:05.279Z,24.11
2022-08-21T13:09:12.119Z,24.02
2022-08-21T13:14:38.341Z,24.86
2022-08-21T13:19:58.914Z,25.65
2022-08-21T13:25:00.700Z,25.73
2022-08-21T13:30:18.429Z,26.78
2022-08-21T13:35:23.906Z,26.19
2022-08-21T13:40:30.637Z,28.35
2022-08-21T13:45:33.797Z,26.38
2022-08-21T13:50:38.740Z,24.38
2022-08-21T13:55:44.853Z,24.21
2022-08-21T14:00:53.718Z,24.36
2022-08-21T14:05:55.500Z,23.89
2022-08-21T14:10:58.109Z,24.16
2022-08-21T14:16:03.442Z,23.76
2022-08-21T14:21:07.476Z,23.43
2022-08-21T14:26:10.122Z,23.30
2022-08-21T14:31:23.020Z,23.80
2022-08-21T14:36:25.372Z,23.97
2022-08-21T14:41:30.233Z,24.39
2022-08-21T14:46:33.150Z,24.21
2022-08-21T14:51:34.831Z,23.36
2022-08-21T14:56:37.011Z,23.48
2022-08-21T15:01:40.488Z,23.54
2022-08-21T15:06:42.245Z,23.22
2022-08-21T15:11:44.303Z,23.46
2022-08-21T15:16:46.621Z,23.36
2022-08-21T15:21:48.516Z,23.63
2022-08-21T15:26:50.494Z,23.14
2022-08-21T15:31:58.091Z,23.09
2022-08-21T15:36:59.801Z,23.03
2022-08-21T15:42:10.671Z,22.92
2022-08-21T15:47:16.541Z,22.63
2022-08-21T15:52:21.605Z,22.54
2022-08-21T15:57:25.699Z,22.34
2022-08-21T16:02:31.284Z,21.91
2022-08-21T16:07:32.960Z,21.97
2022-08-21T16:12:42.614Z,21.96
2022-08-21T16:17:48.813Z,21.81
2022-08-21T16:22:50.885Z,21.88
2022-08-21T16:27:59.583Z,21.91
2022-08-21T16:33:03.747Z,21.88
2022-08-21T16:38:05.447Z,22.11
2022-08-21T16:43:07.267Z,21.91
2022-08-21T16:48:09.849Z,21.81
2022-08-21T16:53:11.506Z,21.90
2022-08-21T16:58:34.959Z,21.97
2022-08-21T17:03:40.424Z,21.87
2022-08-21T17:08:42.470Z,21.79
2022-08-21T17:13:44.118Z,21.73
2022-08-21T17:18:47.772Z,21.57
2022-08-21T17:23:53.688Z,21.17
2022-08-21T17:28:55.465Z,20.84
2022-08-21T17:33:57.375Z,20.88
2022-08-21T17:38:59.808Z,20.64
2022-08-21T17:44:07.346Z,20.56
2022-08-21T17:49:09.189Z,20.29
2022-08-21T17:54:11.172Z,19.95
2022-08-21T17:59:13.059Z,19.41
2022-08-21T18:04:15.958Z,19.08
2022-08-21T18:09:18.468Z,18.95
2022-08-21T18:14:25.254Z,18.73
2022-08-21T18:19:27.170Z,18.50
2022-08-21T18:24:28.864Z,18.24
2022-08-21T18:29:30.618Z,18.10
2022-08-21T18:34:37.581Z,17.98
2022-08-21T18:39:39.250Z,17.66
2022-08-21T18:44:45.257Z,17.44
2022-08-21T18:49:46.934Z,17.32
2022-08-21T18:54:49.565Z,17.29
2022-08-21T18:59:51.808Z,16.97
2022-08-21T19:04:53.682Z,16.82
2022-08-21T19:10:24.094Z,16.61
2022-08-21T19:15:20.101Z,16.58
2022-08-21T19:20:30.085Z,16.27
2022-08-21T19:31:00.653Z,16.19
2022-08-21T19:36:05.504Z,16.07
2022-08-21T19:41:10.346Z,15.99
2022-08-21T19:46:15.822Z,15.68
2022-08-21T19:51:18.801Z,15.65
2022-08-21T19:56:24.657Z,15.68
2022-08-21T20:01:27.580Z,15.33
2022-08-21T20:06:29.373Z,15.41
2022-08-21T20:11:38.016Z,15.37
2022-08-21T20:16:41.433Z,15.34
2022-08-21T20:21:44.570Z,15.20
2022-08-21T20:26:49.260Z,15.01
2022-08-21T20:31:52.006Z,15.07
2022-08-21T20:36:53.873Z,15.06
2022-08-21T20:41:56.742Z,15.08
2022-08-21T20:46:59.857Z,14.91
2022-08-21T20:52:09.115Z,14.83
2022-08-21T20:57:18.259Z,14.73
2022-08-21T21:02:42.866Z,14.67
2022-08-21T21:08:00.756Z,14.59
2022-08-21T21:13:26.237Z,14.55
2022-08-21T21:18:37.237Z,14.56
2022-08-21T21:24:14.876Z,14.64
2022-08-21T21:29:25.556Z,14.48
2022-08-21T21:34:31.917Z,14.29
2022-08-21T21:40:08.806Z,14.42
2022-08-21T21:45:10.408Z,14.50
2022-08-21T21:50:21.178Z,14.35
2022-08-21T21:55:50.764Z,14.41
2022-08-21T22:01:07.256Z,14.26
2022-08-21T22:06:27.255Z,14.27
2022-08-21T22:11:58.355Z,14.18
2022-08-21T22:17:08.330Z,14.17
2022-08-21T22:22:23.151Z,14.04
2022-08-21T22:27:34.127Z,13.92
2022-08-21T22:32:45.779Z,13.93
2022-08-21T22:37:55.136Z,13.91
2022-08-21T22:43:02.628Z,13.96
2022-08-21T22:48:11.091Z,13.98
2022-08-21T22:53:23.978Z,13.85
2022-08-21T22:58:30.607Z,13.98
2022-08-21T23:03:52.966Z,14.03
2022-08-21T23:08:55.460Z,13.92
2022-08-21T23:13:57.125Z,14.11
2022-08-21T23:19:17.661Z,14.01
2022-08-21T23:24:46.629Z,13.93
2022-08-21T23:30:18.528Z,13.76
2022-08-21T23:35:48.237Z,13.81
2022-08-21T23:41:18.863Z,13.35
2022-08-21T23:46:56.954Z,13.55
2022-08-21T23:52:19.931Z,13.61
2022-08-21T23:57:31.243Z,13.55
